sensor_id;sensor_type;location;lat;lon;timestamp;temperature;humidity
11989;DHT22;6054;50.966;7.094;2024-01-06T00:01:55;15.40;55.40
11989;DHT22;6054;50.966;7.094;2024-01-06T00:04:22;15.50;55.10
11989;DHT22;6054;50.966;7.094;2024-01-06T00:06:48;15.50;55.20
11989;DHT22;6054;50.966;7.094;2024-01-06T00:09:15;15.70;55.40
11989;DHT22;6054;50.966;7.094;2024-01-06T00:11:42;15.60;55.20
11989;DHT22;6054;50.966;7.094;2024-01-06T00:14:09;15.70;55.20
11989;DHT22;6054;50.966;7.094;2024-01-06T00:16:37;15.40;55.10
11989;DHT22;6054;50.966;7.094;2024-01-06T00:19:04;15.40;54.60
11989;DHT22;6054;50.966;7.094;2024-01-06T00:21:30;15.40;55.00
11989;DHT22;6054;50.966;7.094;2024-01-06T00:23:57;15.40;54.70
11989;DHT22;6054;50.966;7.094;2024-01-06T00:26:24;15.40;54.80
11989;DHT22;6054;50.966;7.094;2024-01-06T00:28:50;15.40;55.70
11989;DHT22;6054;50.966;7.094;2024-01-06T00:31:17;15.40;55.30
11989;DHT22;6054;50.966;7.094;2024-01-06T00:33:46;15.40;55.30
11989;DHT22;6054;50.966;7.094;2024-01-06T00:36:13;15.40;55.10
11989;DHT22;6054;50.966;7.094;2024-01-06T00:38:39;15.30;54.70
11989;DHT22;6054;50.966;7.094;2024-01-06T00:41:06;15.40;54.90
11989;DHT22;6054;50.966;7.094;2024-01-06T00:43:33;15.30;54.70
11989;DHT22;6054;50.966;7.094;2024-01-06T00:46:00;15.40;55.00
11989;DHT22;6054;50.966;7.094;2024-01-06T00:48:26;15.40;55.20
11989;DHT22;6054;50.966;7.094;2024-01-06T00:50:55;15.40;55.10
11989;DHT22;6054;50.966;7.094;2024-01-06T00:53:22;15.30;54.90
11989;DHT22;6054;50.966;7.094;2024-01-06T00:55:48;15.30;54.30
11989;DHT22;6054;50.966;7.094;2024-01-06T00:58:15;15.20;55.20
11989;DHT22;6054;50.966;7.094;2024-01-06T01:00:42;15.20;55.20
11989;DHT22;6054;50.966;7.094;2024-01-06T01:03:09;15.20;55.60
11989;DHT22;6054;50.966;7.094;2024-01-06T01:05:35;15.10;55.80
11989;DHT22;6054;50.966;7.094;2024-01-06T01:08:04;15.10;55.80
11989;DHT22;6054;50.966;7.094;2024-01-06T01:10:31;15.10;55.90
11989;DHT22;6054;50.966;7.094;2024-01-06T01:12:58;15.10;55.80
11989;DHT22;6054;50.966;7.094;2024-01-06T01:15:24;15.10;55.80
11989;DHT22;6054;50.966;7.094;2024-01-06T01:17:51;15.00;56.00
11989;DHT22;6054;50.966;7.094;2024-01-06T01:20:18;15.00;56.30
11989;DHT22;6054;50.966;7.094;2024-01-06T01:22:45;15.00;56.30
11989;DHT22;6054;50.966;7.094;2024-01-06T01:25:13;14.90;56.00
11989;DHT22;6054;50.966;7.094;2024-01-06T01:27:40;15.00;56.50
11989;DHT22;6054;50.966;7.094;2024-01-06T01:30:07;14.90;56.60
11989;DHT22;6054;50.966;7.094;2024-01-06T01:32:34;15.00;57.50
11989;DHT22;6054;50.966;7.094;2024-01-06T01:35:01;14.90;56.70
11989;DHT22;6054;50.966;7.094;2024-01-06T01:37:29;15.20;57.20
11989;DHT22;6054;50.966;7.094;2024-01-06T01:39:57;14.90;57.20
11989;DHT22;6054;50.966;7.094;2024-01-06T01:42:25;14.90;57.50
11989;DHT22;6054;50.966;7.094;2024-01-06T01:44:51;14.90;57.10
11989;DHT22;6054;50.966;7.094;2024-01-06T01:47:18;14.90;57.80
11989;DHT22;6054;50.966;7.094;2024-01-06T01:49:47;14.90;58.40
11989;DHT22;6054;50.966;7.094;2024-01-06T01:52:14;14.90;58.20
11989;DHT22;6054;50.966;7.094;2024-01-06T01:54:42;14.90;58.70
11989;DHT22;6054;50.966;7.094;2024-01-06T01:57:10;14.90;58.50
11989;DHT22;6054;50.966;7.094;2024-01-06T01:59:39;14.90;58.70
11989;DHT22;6054;50.966;7.094;2024-01-06T02:02:06;15.20;58.70
11989;DHT22;6054;50.966;7.094;2024-01-06T02:04:34;14.90;58.90
11989;DHT22;6054;50.966;7.094;2024-01-06T02:07:00;14.90;58.60
11989;DHT22;6054;50.966;7.094;2024-01-06T02:09:27;14.90;58.60
11989;DHT22;6054;50.966;7.094;2024-01-06T02:11:56;14.90;58.90
11989;DHT22;6054;50.966;7.094;2024-01-06T02:14:23;15.20;59.70
11989;DHT22;6054;50.966;7.094;2024-01-06T02:16:51;15.20;58.50
11989;DHT22;6054;50.966;7.094;2024-01-06T02:19:18;15.00;58.90
11989;DHT22;6054;50.966;7.094;2024-01-06T02:21:49;14.90;58.90
11989;DHT22;6054;50.966;7.094;2024-01-06T02:24:16;14.90;59.40
11989;DHT22;6054;50.966;7.094;2024-01-06T02:26:43;15.20;59.20
11989;DHT22;6054;50.966;7.094;2024-01-06T02:29:10;14.90;59.30
11989;DHT22;6054;50.966;7.094;2024-01-06T02:31:36;15.20;60.10
11989;DHT22;6054;50.966;7.094;2024-01-06T02:34:03;14.90;60.30
11989;DHT22;6054;50.966;7.094;2024-01-06T02:36:30;14.90;60.60
11989;DHT22;6054;50.966;7.094;2024-01-06T02:38:58;14.90;60.80
11989;DHT22;6054;50.966;7.094;2024-01-06T02:41:25;14.90;60.70
11989;DHT22;6054;50.966;7.094;2024-01-06T02:43:53;14.90;60.80
11989;DHT22;6054;50.966;7.094;2024-01-06T02:46:20;14.90;61.90
11989;DHT22;6054;50.966;7.094;2024-01-06T02:48:47;14.90;61.40
11989;DHT22;6054;50.966;7.094;2024-01-06T02:51:14;15.20;61.80
11989;DHT22;6054;50.966;7.094;2024-01-06T02:53:41;15.00;62.50
11989;DHT22;6054;50.966;7.094;2024-01-06T02:56:11;15.00;61.30
11989;DHT22;6054;50.966;7.094;2024-01-06T02:58:38;15.00;61.30
11989;DHT22;6054;50.966;7.094;2024-01-06T03:01:04;15.30;61.50
11989;DHT22;6054;50.966;7.094;2024-01-06T03:03:32;15.00;62.30
11989;DHT22;6054;50.966;7.094;2024-01-06T03:05:58;15.00;61.50
11989;DHT22;6054;50.966;7.094;2024-01-06T03:08:25;15.00;62.00
11989;DHT22;6054;50.966;7.094;2024-01-06T03:10:52;15.00;62.20
11989;DHT22;6054;50.966;7.094;2024-01-06T03:13:20;15.30;60.60
11989;DHT22;6054;50.966;7.094;2024-01-06T03:15:47;15.00;60.60
11989;DHT22;6054;50.966;7.094;2024-01-06T03:18:14;15.00;61.20
11989;DHT22;6054;50.966;7.094;2024-01-06T03:20:41;15.30;60.50
11989;DHT22;6054;50.966;7.094;2024-01-06T03:23:08;15.00;62.10
11989;DHT22;6054;50.966;7.094;2024-01-06T03:25:35;15.00;60.00
11989;DHT22;6054;50.966;7.094;2024-01-06T03:28:02;15.00;61.20
11989;DHT22;6054;50.966;7.094;2024-01-06T03:30:30;15.00;61.70
11989;DHT22;6054;50.966;7.094;2024-01-06T03:32:57;15.00;61.20
11989;DHT22;6054;50.966;7.094;2024-01-06T03:35:23;15.00;61.20
11989;DHT22;6054;50.966;7.094;2024-01-06T03:37:50;15.00;61.40
11989;DHT22;6054;50.966;7.094;2024-01-06T03:40:17;15.00;61.30
11989;DHT22;6054;50.966;7.094;2024-01-06T03:42:44;15.00;61.80
11989;DHT22;6054;50.966;7.094;2024-01-06T03:45:11;15.00;61.30
11989;DHT22;6054;50.966;7.094;2024-01-06T03:47:39;15.00;62.70
11989;DHT22;6054;50.966;7.094;2024-01-06T03:50:06;15.00;62.20
11989;DHT22;6054;50.966;7.094;2024-01-06T03:52:33;15.00;62.90
11989;DHT22;6054;50.966;7.094;2024-01-06T03:54:59;15.00;62.70
11989;DHT22;6054;50.966;7.094;2024-01-06T03:57:26;15.00;62.80
11989;DHT22;6054;50.966;7.094;2024-01-06T03:59:53;15.00;62.50
11989;DHT22;6054;50.966;7.094;2024-01-06T04:02:20;15.00;62.70
11989;DHT22;6054;50.966;7.094;2024-01-06T04:04:48;15.00;62.90
11989;DHT22;6054;50.966;7.094;2024-01-06T04:07:15;15.00;62.50
11989;DHT22;6054;50.966;7.094;2024-01-06T04:09:42;15.00;62.60
11989;DHT22;6054;50.966;7.094;2024-01-06T04:12:10;15.40;63.40
11989;DHT22;6054;50.966;7.094;2024-01-06T04:14:36;15.10;61.70
11989;DHT22;6054;50.966;7.094;2024-01-06T04:17:03;15.00;61.50
11989;DHT22;6054;50.966;7.094;2024-01-06T04:19:30;15.00;62.90
11989;DHT22;6054;50.966;7.094;2024-01-06T04:21:59;15.00;63.00
11989;DHT22;6054;50.966;7.094;2024-01-06T04:24:26;15.00;62.40
11989;DHT22;6054;50.966;7.094;2024-01-06T04:26:53;15.00;62.40
11989;DHT22;6054;50.966;7.094;2024-01-06T04:29:20;15.00;62.90
11989;DHT22;6054;50.966;7.094;2024-01-06T04:31:47;15.00;63.20
11989;DHT22;6054;50.966;7.094;2024-01-06T04:34:13;15.00;62.60
11989;DHT22;6054;50.966;7.094;2024-01-06T04:36:40;15.00;63.20
11989;DHT22;6054;50.966;7.094;2024-01-06T04:39:09;15.00;62.10
11989;DHT22;6054;50.966;7.094;2024-01-06T04:41:38;15.00;61.90
11989;DHT22;6054;50.966;7.094;2024-01-06T04:44:05;15.00;62.90
11989;DHT22;6054;50.966;7.094;2024-01-06T04:46:32;15.30;62.80
11989;DHT22;6054;50.966;7.094;2024-01-06T04:48:59;15.00;62.90
11989;DHT22;6054;50.966;7.094;2024-01-06T04:51:26;15.00;63.00
11989;DHT22;6054;50.966;7.094;2024-01-06T04:53:52;15.00;63.30
11989;DHT22;6054;50.966;7.094;2024-01-06T04:56:21;15.00;62.80
11989;DHT22;6054;50.966;7.094;2024-01-06T04:58:47;15.00;63.50
11989;DHT22;6054;50.966;7.094;2024-01-06T05:01:14;15.30;63.80
11989;DHT22;6054;50.966;7.094;2024-01-06T05:03:41;15.00;63.30
11989;DHT22;6054;50.966;7.094;2024-01-06T05:06:08;15.30;63.60
11989;DHT22;6054;50.966;7.094;2024-01-06T05:08:35;14.90;63.20
11989;DHT22;6054;50.966;7.094;2024-01-06T05:11:05;14.90;63.30
11989;DHT22;6054;50.966;7.094;2024-01-06T05:13:33;14.90;63.10
11989;DHT22;6054;50.966;7.094;2024-01-06T05:16:00;14.90;63.20
11989;DHT22;6054;50.966;7.094;2024-01-06T05:18:27;14.90;63.30
11989;DHT22;6054;50.966;7.094;2024-01-06T05:20:54;14.90;63.00
11989;DHT22;6054;50.966;7.094;2024-01-06T05:23:20;14.90;62.40
11989;DHT22;6054;50.966;7.094;2024-01-06T05:25:47;14.90;62.30
11989;DHT22;6054;50.966;7.094;2024-01-06T05:28:14;14.90;61.40
11989;DHT22;6054;50.966;7.094;2024-01-06T05:30:43;15.10;62.60
11989;DHT22;6054;50.966;7.094;2024-01-06T05:33:10;14.80;59.80
11989;DHT22;6054;50.966;7.094;2024-01-06T05:35:38;15.10;63.40
11989;DHT22;6054;50.966;7.094;2024-01-06T05:38:05;14.80;62.20
11989;DHT22;6054;50.966;7.094;2024-01-06T05:40:31;14.70;62.10
11989;DHT22;6054;50.966;7.094;2024-01-06T05:42:58;14.70;61.90
11989;DHT22;6054;50.966;7.094;2024-01-06T05:45:25;15.00;59.50
11989;DHT22;6054;50.966;7.094;2024-01-06T05:47:53;14.60;60.10
11989;DHT22;6054;50.966;7.094;2024-01-06T05:50:20;14.50;58.50
11989;DHT22;6054;50.966;7.094;2024-01-06T05:52:47;14.40;58.60
11989;DHT22;6054;50.966;7.094;2024-01-06T05:55:14;14.30;59.30
11989;DHT22;6054;50.966;7.094;2024-01-06T05:57:41;14.30;59.50
11989;DHT22;6054;50.966;7.094;2024-01-06T06:00:09;14.20;59.30
11989;DHT22;6054;50.966;7.094;2024-01-06T06:02:36;14.20;60.20
11989;DHT22;6054;50.966;7.094;2024-01-06T06:05:06;14.10;58.00
11989;DHT22;6054;50.966;7.094;2024-01-06T06:07:33;14.10;60.80
11989;DHT22;6054;50.966;7.094;2024-01-06T06:10:05;14.00;59.90
11989;DHT22;6054;50.966;7.094;2024-01-06T06:12:32;14.00;60.60
11989;DHT22;6054;50.966;7.094;2024-01-06T06:15:02;14.00;58.50
11989;DHT22;6054;50.966;7.094;2024-01-06T06:17:29;13.90;60.80
11989;DHT22;6054;50.966;7.094;2024-01-06T06:19:56;13.80;59.30
11989;DHT22;6054;50.966;7.094;2024-01-06T06:22:25;14.10;58.60
11989;DHT22;6054;50.966;7.094;2024-01-06T06:24:55;14.10;59.70
11989;DHT22;6054;50.966;7.094;2024-01-06T06:27:22;14.10;59.40
11989;DHT22;6054;50.966;7.094;2024-01-06T06:29:49;13.70;59.80
11989;DHT22;6054;50.966;7.094;2024-01-06T06:32:16;13.70;59.70
11989;DHT22;6054;50.966;7.094;2024-01-06T06:34:43;14.00;60.30
11989;DHT22;6054;50.966;7.094;2024-01-06T06:37:10;13.60;59.00
11989;DHT22;6054;50.966;7.094;2024-01-06T06:39:38;13.60;59.40
11989;DHT22;6054;50.966;7.094;2024-01-06T06:42:05;13.60;59.60
11989;DHT22;6054;50.966;7.094;2024-01-06T06:44:32;13.60;59.70
11989;DHT22;6054;50.966;7.094;2024-01-06T06:46:59;13.50;60.10
11989;DHT22;6054;50.966;7.094;2024-01-06T06:49:25;13.50;60.10
11989;DHT22;6054;50.966;7.094;2024-01-06T06:51:52;13.90;60.60
11989;DHT22;6054;50.966;7.094;2024-01-06T06:54:21;13.40;60.00
11989;DHT22;6054;50.966;7.094;2024-01-06T06:56:49;13.40;60.00
11989;DHT22;6054;50.966;7.094;2024-01-06T06:59:16;13.40;59.40
11989;DHT22;6054;50.966;7.094;2024-01-06T07:01:43;13.40;59.80
11989;DHT22;6054;50.966;7.094;2024-01-06T07:04:10;13.40;60.20
11989;DHT22;6054;50.966;7.094;2024-01-06T07:06:37;13.40;59.10
11989;DHT22;6054;50.966;7.094;2024-01-06T07:09:03;13.70;60.50
11989;DHT22;6054;50.966;7.094;2024-01-06T07:11:30;13.40;61.50
11989;DHT22;6054;50.966;7.094;2024-01-06T07:13:58;13.80;61.60
11989;DHT22;6054;50.966;7.094;2024-01-06T07:16:25;13.40;61.10
11989;DHT22;6054;50.966;7.094;2024-01-06T07:18:52;13.80;60.90
11989;DHT22;6054;50.966;7.094;2024-01-06T07:21:19;13.40;60.50
11989;DHT22;6054;50.966;7.094;2024-01-06T07:23:46;13.40;61.20
11989;DHT22;6054;50.966;7.094;2024-01-06T07:26:12;13.40;61.10
11989;DHT22;6054;50.966;7.094;2024-01-06T07:28:39;13.50;60.00
11989;DHT22;6054;50.966;7.094;2024-01-06T07:31:07;13.70;59.80
11989;DHT22;6054;50.966;7.094;2024-01-06T07:33:34;13.50;59.60
11989;DHT22;6054;50.966;7.094;2024-01-06T07:36:01;13.50;60.00
11989;DHT22;6054;50.966;7.094;2024-01-06T07:38:28;13.60;61.10
11989;DHT22;6054;50.966;7.094;2024-01-06T07:40:56;13.50;60.80
11989;DHT22;6054;50.966;7.094;2024-01-06T07:43:23;13.70;61.50
11989;DHT22;6054;50.966;7.094;2024-01-06T07:45:50;13.50;60.80
11989;DHT22;6054;50.966;7.094;2024-01-06T07:48:18;13.50;60.20
11989;DHT22;6054;50.966;7.094;2024-01-06T07:50:45;13.80;60.50
11989;DHT22;6054;50.966;7.094;2024-01-06T07:53:12;13.50;61.50
11989;DHT22;6054;50.966;7.094;2024-01-06T07:55:39;13.50;61.90
11989;DHT22;6054;50.966;7.094;2024-01-06T07:58:06;13.60;61.60
11989;DHT22;6054;50.966;7.094;2024-01-06T08:00:33;13.50;61.00
11989;DHT22;6054;50.966;7.094;2024-01-06T08:03:00;13.50;60.20
11989;DHT22;6054;50.966;7.094;2024-01-06T08:05:29;13.50;60.30
11989;DHT22;6054;50.966;7.094;2024-01-06T08:07:56;13.60;60.10
11989;DHT22;6054;50.966;7.094;2024-01-06T08:10:23;13.50;60.70
11989;DHT22;6054;50.966;7.094;2024-01-06T08:12:50;13.50;61.30
11989;DHT22;6054;50.966;7.094;2024-01-06T08:15:17;13.50;61.40
11989;DHT22;6054;50.966;7.094;2024-01-06T08:17:44;13.50;60.20
11989;DHT22;6054;50.966;7.094;2024-01-06T08:20:12;13.50;60.10
11989;DHT22;6054;50.966;7.094;2024-01-06T08:22:40;13.50;61.80
11989;DHT22;6054;50.966;7.094;2024-01-06T08:25:07;13.50;61.10
11989;DHT22;6054;50.966;7.094;2024-01-06T08:27:34;13.50;61.90
11989;DHT22;6054;50.966;7.094;2024-01-06T08:30:01;13.50;60.70
11989;DHT22;6054;50.966;7.094;2024-01-06T08:32:28;13.50;60.90
11989;DHT22;6054;50.966;7.094;2024-01-06T08:34:54;13.80;61.00
11989;DHT22;6054;50.966;7.094;2024-01-06T08:37:21;13.60;62.30
11989;DHT22;6054;50.966;7.094;2024-01-06T08:39:49;13.50;62.10
11989;DHT22;6054;50.966;7.094;2024-01-06T08:42:16;13.50;62.10
11989;DHT22;6054;50.966;7.094;2024-01-06T08:44:43;13.50;62.10
11989;DHT22;6054;50.966;7.094;2024-01-06T08:47:10;13.50;62.10
11989;DHT22;6054;50.966;7.094;2024-01-06T08:49:37;13.50;61.40
11989;DHT22;6054;50.966;7.094;2024-01-06T08:52:05;13.60;60.80
11989;DHT22;6054;50.966;7.094;2024-01-06T08:54:32;13.50;62.30
11989;DHT22;6054;50.966;7.094;2024-01-06T08:57:00;13.90;61.40
11989;DHT22;6054;50.966;7.094;2024-01-06T08:59:26;13.70;61.70
11989;DHT22;6054;50.966;7.094;2024-01-06T09:01:53;13.40;61.40
11989;DHT22;6054;50.966;7.094;2024-01-06T09:04:21;13.40;61.30
11989;DHT22;6054;50.966;7.094;2024-01-06T09:06:48;13.40;60.90
11989;DHT22;6054;50.966;7.094;2024-01-06T09:09:16;13.40;61.00
11989;DHT22;6054;50.966;7.094;2024-01-06T09:11:42;13.40;61.50
11989;DHT22;6054;50.966;7.094;2024-01-06T09:14:13;13.40;61.90
11989;DHT22;6054;50.966;7.094;2024-01-06T09:16:40;13.40;62.00
11989;DHT22;6054;50.966;7.094;2024-01-06T09:19:06;13.40;61.90
11989;DHT22;6054;50.966;7.094;2024-01-06T09:21:33;13.60;62.00
11989;DHT22;6054;50.966;7.094;2024-01-06T09:24:01;13.40;62.40
11989;DHT22;6054;50.966;7.094;2024-01-06T09:26:31;13.80;62.00
11989;DHT22;6054;50.966;7.094;2024-01-06T09:28:59;13.40;62.00
11989;DHT22;6054;50.966;7.094;2024-01-06T09:31:27;13.40;62.80
11989;DHT22;6054;50.966;7.094;2024-01-06T09:33:54;13.40;61.80
11989;DHT22;6054;50.966;7.094;2024-01-06T09:36:21;13.40;60.40
11989;DHT22;6054;50.966;7.094;2024-01-06T09:38:48;13.40;61.50
11989;DHT22;6054;50.966;7.094;2024-01-06T09:41:14;13.70;62.10
11989;DHT22;6054;50.966;7.094;2024-01-06T09:43:41;13.40;61.80
11989;DHT22;6054;50.966;7.094;2024-01-06T09:46:11;13.30;61.40
11989;DHT22;6054;50.966;7.094;2024-01-06T09:48:43;13.30;62.20
11989;DHT22;6054;50.966;7.094;2024-01-06T09:51:12;13.30;62.20
11989;DHT22;6054;50.966;7.094;2024-01-06T09:53:43;13.30;61.50
11989;DHT22;6054;50.966;7.094;2024-01-06T09:56:13;13.30;62.30
11989;DHT22;6054;50.966;7.094;2024-01-06T09:58:41;13.40;62.70
11989;DHT22;6054;50.966;7.094;2024-01-06T10:01:08;13.30;62.30
11989;DHT22;6054;50.966;7.094;2024-01-06T10:03:36;13.50;62.90
11989;DHT22;6054;50.966;7.094;2024-01-06T10:06:04;13.20;61.70
11989;DHT22;6054;50.966;7.094;2024-01-06T10:08:31;13.30;62.30
11989;DHT22;6054;50.966;7.094;2024-01-06T10:11:00;13.30;62.30
11989;DHT22;6054;50.966;7.094;2024-01-06T10:13:27;13.30;61.90
11989;DHT22;6054;50.966;7.094;2024-01-06T10:15:55;13.40;62.40
11989;DHT22;6054;50.966;7.094;2024-01-06T10:18:21;13.20;61.20
11989;DHT22;6054;50.966;7.094;2024-01-06T10:20:50;13.20;61.70
11989;DHT22;6054;50.966;7.094;2024-01-06T10:23:18;13.20;61.30
11989;DHT22;6054;50.966;7.094;2024-01-06T10:25:45;13.20;61.10
11989;DHT22;6054;50.966;7.094;2024-01-06T10:28:11;13.20;61.20
11989;DHT22;6054;50.966;7.094;2024-01-06T10:30:39;13.40;61.90
11989;DHT22;6054;50.966;7.094;2024-01-06T10:33:08;13.10;61.60
11989;DHT22;6054;50.966;7.094;2024-01-06T10:35:36;13.20;62.40
11989;DHT22;6054;50.966;7.094;2024-01-06T10:38:03;13.10;61.90
11989;DHT22;6054;50.966;7.094;2024-01-06T10:40:31;13.10;61.70
11989;DHT22;6054;50.966;7.094;2024-01-06T10:42:59;13.10;61.40
11989;DHT22;6054;50.966;7.094;2024-01-06T10:45:28;13.10;61.80
11989;DHT22;6054;50.966;7.094;2024-01-06T10:47:55;12.60;61.60
11989;DHT22;6054;50.966;7.094;2024-01-06T10:50:22;13.00;61.40
11989;DHT22;6054;50.966;7.094;2024-01-06T10:52:50;13.00;62.20
11989;DHT22;6054;50.966;7.094;2024-01-06T10:55:19;13.00;62.00
11989;DHT22;6054;50.966;7.094;2024-01-06T10:57:48;13.00;61.60
11989;DHT22;6054;50.966;7.094;2024-01-06T11:00:17;13.00;62.00
11989;DHT22;6054;50.966;7.094;2024-01-06T11:02:44;13.00;62.50
11989;DHT22;6054;50.966;7.094;2024-01-06T11:05:13;13.40;63.10
11989;DHT22;6054;50.966;7.094;2024-01-06T11:07:40;13.00;62.20
11989;DHT22;6054;50.966;7.094;2024-01-06T11:10:11;13.10;62.60
11989;DHT22;6054;50.966;7.094;2024-01-06T11:12:38;13.00;62.60
11989;DHT22;6054;50.966;7.094;2024-01-06T11:15:07;13.00;61.20
11989;DHT22;6054;50.966;7.094;2024-01-06T11:17:49;13.00;62.00
11989;DHT22;6054;50.966;7.094;2024-01-06T11:20:18;13.00;62.50
11989;DHT22;6054;50.966;7.094;2024-01-06T11:22:45;13.00;62.10
11989;DHT22;6054;50.966;7.094;2024-01-06T11:25:14;13.00;61.90
11989;DHT22;6054;50.966;7.094;2024-01-06T11:27:42;13.00;62.70
11989;DHT22;6054;50.966;7.094;2024-01-06T11:30:19;13.40;63.30
11989;DHT22;6054;50.966;7.094;2024-01-06T11:32:46;13.30;63.20
11989;DHT22;6054;50.966;7.094;2024-01-06T11:35:14;13.10;61.90
11989;DHT22;6054;50.966;7.094;2024-01-06T11:37:52;13.00;62.70
11989;DHT22;6054;50.966;7.094;2024-01-06T11:40:31;13.00;62.50
11989;DHT22;6054;50.966;7.094;2024-01-06T11:43:01;13.10;62.40
11989;DHT22;6054;50.966;7.094;2024-01-06T11:45:29;13.00;62.20
11989;DHT22;6054;50.966;7.094;2024-01-06T11:47:57;13.30;62.20
11989;DHT22;6054;50.966;7.094;2024-01-06T11:50:25;13.20;62.40
11989;DHT22;6054;50.966;7.094;2024-01-06T11:52:52;13.00;62.00
11989;DHT22;6054;50.966;7.094;2024-01-06T11:55:20;13.20;61.70
11989;DHT22;6054;50.966;7.094;2024-01-06T11:57:47;13.20;62.40
11989;DHT22;6054;50.966;7.094;2024-01-06T12:00:16;13.00;61.40
11989;DHT22;6054;50.966;7.094;2024-01-06T12:02:44;13.00;62.50
11989;DHT22;6054;50.966;7.094;2024-01-06T12:05:15;12.90;60.80
11989;DHT22;6054;50.966;7.094;2024-01-06T12:07:43;13.00;62.10
11989;DHT22;6054;50.966;7.094;2024-01-06T12:10:10;12.90;61.80
11989;DHT22;6054;50.966;7.094;2024-01-06T12:12:38;12.90;62.00
11989;DHT22;6054;50.966;7.094;2024-01-06T12:15:06;12.90;61.70
11989;DHT22;6054;50.966;7.094;2024-01-06T12:17:35;12.90;61.70
11989;DHT22;6054;50.966;7.094;2024-01-06T12:20:04;13.20;61.90
11989;DHT22;6054;50.966;7.094;2024-01-06T12:22:34;12.90;61.90
11989;DHT22;6054;50.966;7.094;2024-01-06T12:25:01;12.80;60.60
11989;DHT22;6054;50.966;7.094;2024-01-06T12:27:30;12.90;61.90
11989;DHT22;6054;50.966;7.094;2024-01-06T12:29:57;12.80;61.30
11989;DHT22;6054;50.966;7.094;2024-01-06T12:32:24;12.80;60.50
11989;DHT22;6054;50.966;7.094;2024-01-06T12:34:51;12.80;57.60
11989;DHT22;6054;50.966;7.094;2024-01-06T12:37:20;13.10;60.70
11989;DHT22;6054;50.966;7.094;2024-01-06T12:39:47;12.70;60.30
11989;DHT22;6054;50.966;7.094;2024-01-06T12:42:15;12.70;61.10
11989;DHT22;6054;50.966;7.094;2024-01-06T12:44:43;12.70;61.80
11989;DHT22;6054;50.966;7.094;2024-01-06T12:47:10;13.10;61.20
11989;DHT22;6054;50.966;7.094;2024-01-06T12:49:37;12.70;60.60
11989;DHT22;6054;50.966;7.094;2024-01-06T12:52:04;12.70;61.50
11989;DHT22;6054;50.966;7.094;2024-01-06T12:54:33;12.70;61.40
11989;DHT22;6054;50.966;7.094;2024-01-06T12:57:00;12.70;60.90
11989;DHT22;6054;50.966;7.094;2024-01-06T12:59:27;12.70;61.20
11989;DHT22;6054;50.966;7.094;2024-01-06T13:01:55;12.90;62.20
11989;DHT22;6054;50.966;7.094;2024-01-06T13:04:22;12.60;60.40
11989;DHT22;6054;50.966;7.094;2024-01-06T13:06:49;12.70;61.20
11989;DHT22;6054;50.966;7.094;2024-01-06T13:09:16;12.80;60.80
11989;DHT22;6054;50.966;7.094;2024-01-06T13:11:44;12.60;60.80
11989;DHT22;6054;50.966;7.094;2024-01-06T13:14:13;12.60;60.70
11989;DHT22;6054;50.966;7.094;2024-01-06T13:16:40;12.90;61.60
11989;DHT22;6054;50.966;7.094;2024-01-06T13:19:06;12.60;61.10
11989;DHT22;6054;50.966;7.094;2024-01-06T13:21:33;12.90;61.40
11989;DHT22;6054;50.966;7.094;2024-01-06T13:24:00;12.70;59.40
11989;DHT22;6054;50.966;7.094;2024-01-06T13:26:30;12.60;60.60
11989;DHT22;6054;50.966;7.094;2024-01-06T13:28:59;13.00;61.60
11989;DHT22;6054;50.966;7.094;2024-01-06T13:31:27;12.60;60.90
11989;DHT22;6054;50.966;7.094;2024-01-06T13:33:54;12.60;60.10
11989;DHT22;6054;50.966;7.094;2024-01-06T13:36:21;12.60;61.00
11989;DHT22;6054;50.966;7.094;2024-01-06T13:38:48;12.50;60.10
11989;DHT22;6054;50.966;7.094;2024-01-06T13:41:15;12.50;60.00
11989;DHT22;6054;50.966;7.094;2024-01-06T13:43:42;12.50;60.20
11989;DHT22;6054;50.966;7.094;2024-01-06T13:46:10;12.80;60.60
11989;DHT22;6054;50.966;7.094;2024-01-06T13:48:39;12.50;60.10
11989;DHT22;6054;50.966;7.094;2024-01-06T13:51:06;12.70;60.50
11989;DHT22;6054;50.966;7.094;2024-01-06T13:53:33;12.50;59.20
11989;DHT22;6054;50.966;7.094;2024-01-06T13:56:00;12.80;60.60
11989;DHT22;6054;50.966;7.094;2024-01-06T13:58:28;12.50;60.40
11989;DHT22;6054;50.966;7.094;2024-01-06T14:00:55;12.50;61.10
11989;DHT22;6054;50.966;7.094;2024-01-06T14:03:23;12.50;60.70
11989;DHT22;6054;50.966;7.094;2024-01-06T14:05:50;12.50;60.60
11989;DHT22;6054;50.966;7.094;2024-01-06T14:08:18;12.50;60.20
11989;DHT22;6054;50.966;7.094;2024-01-06T14:10:52;12.80;60.70
11989;DHT22;6054;50.966;7.094;2024-01-06T14:13:19;12.70;60.70
11989;DHT22;6054;50.966;7.094;2024-01-06T14:15:46;12.50;60.90
11989;DHT22;6054;50.966;7.094;2024-01-06T14:18:13;12.50;60.50
11989;DHT22;6054;50.966;7.094;2024-01-06T14:20:43;12.50;61.00
11989;DHT22;6054;50.966;7.094;2024-01-06T14:23:10;12.40;60.80
11989;DHT22;6054;50.966;7.094;2024-01-06T14:25:37;12.40;60.70
11989;DHT22;6054;50.966;7.094;2024-01-06T14:28:04;12.50;60.40
11989;DHT22;6054;50.966;7.094;2024-01-06T14:30:31;12.50;61.50
11989;DHT22;6054;50.966;7.094;2024-01-06T14:32:58;12.40;60.50
11989;DHT22;6054;50.966;7.094;2024-01-06T14:35:25;12.40;59.70
11989;DHT22;6054;50.966;7.094;2024-01-06T14:37:53;12.40;60.30
11989;DHT22;6054;50.966;7.094;2024-01-06T14:40:20;12.70;61.00
11989;DHT22;6054;50.966;7.094;2024-01-06T14:42:47;12.40;60.60
11989;DHT22;6054;50.966;7.094;2024-01-06T14:45:14;12.40;60.50
11989;DHT22;6054;50.966;7.094;2024-01-06T14:47:43;12.40;60.20
11989;DHT22;6054;50.966;7.094;2024-01-06T14:50:10;12.40;60.10
11989;DHT22;6054;50.966;7.094;2024-01-06T14:52:37;12.40;60.50
11989;DHT22;6054;50.966;7.094;2024-01-06T14:55:06;12.30;60.40
11989;DHT22;6054;50.966;7.094;2024-01-06T14:57:32;12.40;61.30
11989;DHT22;6054;50.966;7.094;2024-01-06T15:00:00;12.30;60.70
11989;DHT22;6054;50.966;7.094;2024-01-06T15:02:26;12.30;60.60
11989;DHT22;6054;50.966;7.094;2024-01-06T15:04:54;12.30;60.60
11989;DHT22;6054;50.966;7.094;2024-01-06T15:07:21;12.30;61.40
11989;DHT22;6054;50.966;7.094;2024-01-06T15:09:51;12.30;60.80
11989;DHT22;6054;50.966;7.094;2024-01-06T15:12:19;12.60;60.50
11989;DHT22;6054;50.966;7.094;2024-01-06T15:14:46;12.50;60.30
11989;DHT22;6054;50.966;7.094;2024-01-06T15:17:13;12.20;60.10
11989;DHT22;6054;50.966;7.094;2024-01-06T15:19:39;12.20;60.00
11989;DHT22;6054;50.966;7.094;2024-01-06T15:22:06;12.30;59.80
11989;DHT22;6054;50.966;7.094;2024-01-06T15:24:33;12.30;59.30
11989;DHT22;6054;50.966;7.094;2024-01-06T15:27:00;12.20;60.30
11989;DHT22;6054;50.966;7.094;2024-01-06T15:29:28;12.30;60.30
11989;DHT22;6054;50.966;7.094;2024-01-06T15:31:55;12.40;60.30
11989;DHT22;6054;50.966;7.094;2024-01-06T15:34:22;12.20;60.10
11989;DHT22;6054;50.966;7.094;2024-01-06T15:36:49;12.20;60.50
11989;DHT22;6054;50.966;7.094;2024-01-06T15:39:16;12.10;60.60
11989;DHT22;6054;50.966;7.094;2024-01-06T15:41:43;12.10;59.90
11989;DHT22;6054;50.966;7.094;2024-01-06T15:44:10;12.10;60.40
11989;DHT22;6054;50.966;7.094;2024-01-06T15:46:38;12.10;60.30